createdAt,value
2017-09-08T00:01:41.688Z,11.70
2017-09-08T00:04:09.259Z,11.60
2017-09-08T00:06:36.795Z,11.70
2017-09-08T00:09:04.378Z,11.70
2017-09-08T00:11:31.912Z,11.70
2017-09-08T00:14:00.252Z,11.60
2017-09-08T00:16:27.779Z,11.60
2017-09-08T00:18:55.361Z,11.70
2017-09-08T00:21:22.903Z,11.70
2017-09-08T00:23:51.254Z,11.70
2017-09-08T00:26:18.810Z,11.70
2017-09-08T00:28:47.176Z,11.60
2017-09-08T00:31:14.712Z,11.60
2017-09-08T00:33:42.294Z,11.60
2017-09-08T00:36:09.825Z,11.60
2017-09-08T00:38:38.159Z,11.50
2017-09-08T00:41:05.687Z,11.50
2017-09-08T00:43:33.270Z,11.50
2017-09-08T00:46:01.577Z,11.60
2017-09-08T00:48:29.121Z,11.60
2017-09-08T00:50:56.706Z,11.50
2017-09-08T00:53:24.301Z,11.50
2017-09-08T00:55:51.887Z,11.50
2017-09-08T00:58:19.518Z,11.50
2017-09-08T01:00:47.113Z,11.60
2017-09-08T01:03:15.423Z,11.50
2017-09-08T01:05:43.016Z,11.40
2017-09-08T01:08:10.560Z,11.40
2017-09-08T01:10:38.898Z,11.40
2017-09-08T01:13:06.439Z,11.40
2017-09-08T01:15:34.007Z,11.50
2017-09-08T01:18:01.539Z,11.50
2017-09-08T01:20:29.107Z,11.50
2017-09-08T01:22:57.416Z,11.40
2017-09-08T01:25:25.856Z,11.40
2017-09-08T01:27:53.808Z,11.50
2017-09-08T01:30:21.397Z,11.50
2017-09-08T01:32:48.972Z,11.50
2017-09-08T01:35:17.388Z,11.40
2017-09-08T01:37:44.937Z,11.30
2017-09-08T01:40:12.509Z,11.30
2017-09-08T01:42:40.143Z,11.50
2017-09-08T01:45:07.735Z,11.50
2017-09-08T01:47:36.032Z,11.40
2017-09-08T01:50:03.596Z,11.40
2017-09-08T01:52:31.156Z,11.40
2017-09-08T01:54:58.728Z,11.40
2017-09-08T01:57:27.044Z,11.30
2017-09-08T01:59:54.652Z,11.30
2017-09-08T02:02:22.233Z,11.30
2017-09-08T02:04:49.910Z,11.40
2017-09-08T02:07:17.689Z,11.40
2017-09-08T02:09:46.177Z,11.20
2017-09-08T02:12:13.839Z,11.20
2017-09-08T02:14:41.452Z,11.20
2017-09-08T02:17:09.041Z,11.30
2017-09-08T02:19:36.628Z,11.30
2017-09-08T02:22:10.618Z,11.30
2017-09-08T02:24:38.968Z,11.30
2017-09-08T02:27:06.528Z,11.30
2017-09-08T02:29:34.856Z,11.30
2017-09-08T02:32:02.382Z,11.30
2017-09-08T02:34:29.959Z,11.20
2017-09-08T02:36:57.540Z,11.10
2017-09-08T02:39:25.145Z,11.10
2017-09-08T02:41:52.725Z,11.10
2017-09-08T02:44:21.098Z,11.10
2017-09-08T02:46:48.755Z,11.10
2017-09-08T02:49:16.560Z,11.00
2017-09-08T02:51:44.108Z,11.00
2017-09-08T02:54:11.687Z,11.10
2017-09-08T02:56:39.221Z,11.10
2017-09-08T02:59:07.519Z,11.00
2017-09-08T03:01:35.220Z,11.00
2017-09-08T03:04:02.898Z,10.90
2017-09-08T03:06:30.503Z,10.90
2017-09-08T03:08:58.108Z,11.00
2017-09-08T03:11:25.716Z,10.90
2017-09-08T03:13:53.288Z,11.00
2017-09-08T03:16:20.928Z,11.00
2017-09-08T03:18:48.675Z,11.00
2017-09-08T03:21:17.212Z,10.90
2017-09-08T03:23:44.912Z,10.80
2017-09-08T03:26:12.604Z,10.90
2017-09-08T03:28:40.282Z,11.00
2017-09-08T03:31:10.880Z,11.00
2017-09-08T03:33:38.801Z,11.00
2017-09-08T03:36:06.663Z,11.00
2017-09-08T03:38:35.222Z,11.00
2017-09-08T03:41:02.852Z,11.00
2017-09-08T03:43:31.099Z,11.10
2017-09-08T03:45:59.514Z,11.00
2017-09-08T03:48:28.280Z,11.00
2017-09-08T03:50:56.820Z,10.90
2017-09-08T03:53:24.600Z,10.90
2017-09-08T03:55:52.242Z,11.00
2017-09-08T03:58:19.840Z,11.00
2017-09-08T04:00:47.418Z,11.00
2017-09-08T04:03:14.992Z,11.00
2017-09-08T04:05:42.528Z,11.10
2017-09-08T04:08:10.135Z,11.00
2017-09-08T04:10:37.673Z,11.10
2017-09-08T04:13:05.264Z,11.00
2017-09-08T04:15:32.804Z,10.90
2017-09-08T04:18:00.373Z,11.00
2017-09-08T04:20:27.918Z,11.00
2017-09-08T04:22:55.517Z,11.00
2017-09-08T04:25:23.125Z,11.00
2017-09-08T04:27:51.645Z,11.10
2017-09-08T04:30:19.333Z,11.10
2017-09-08T04:32:47.088Z,11.10
2017-09-08T04:35:14.811Z,11.20
2017-09-08T04:37:42.437Z,11.20
2017-09-08T04:40:10.026Z,11.20
2017-09-08T04:42:37.638Z,11.20
2017-09-08T04:45:05.192Z,11.30
2017-09-08T04:47:32.788Z,11.40
2017-09-08T04:50:00.325Z,11.50
2017-09-08T04:52:27.925Z,11.60
2017-09-08T04:54:55.542Z,11.60
2017-09-08T04:57:23.501Z,11.70
2017-09-08T04:59:51.231Z,11.70
2017-09-08T05:02:19.217Z,11.70
2017-09-08T05:04:46.877Z,11.70
2017-09-08T05:07:14.578Z,11.80
2017-09-08T05:09:42.137Z,11.90
2017-09-08T05:12:09.712Z,11.90
2017-09-08T05:14:37.250Z,12.00
2017-09-08T05:17:04.816Z,12.10
2017-09-08T05:19:32.361Z,12.10
2017-09-08T05:21:59.940Z,12.20
2017-09-08T05:24:27.564Z,12.30
2017-09-08T05:26:56.004Z,12.30
2017-09-08T05:29:23.715Z,12.30
2017-09-08T05:31:52.111Z,12.40
2017-09-08T05:34:19.908Z,12.30
2017-09-08T05:36:48.320Z,12.50
2017-09-08T05:39:16.182Z,12.50
2017-09-08T05:41:43.761Z,12.60
2017-09-08T05:44:11.345Z,12.60
2017-09-08T05:46:38.895Z,12.70
2017-09-08T05:49:06.476Z,12.70
2017-09-08T05:51:34.001Z,12.60
2017-09-08T05:54:01.572Z,12.70
2017-09-08T05:56:29.113Z,12.70
2017-09-08T05:58:56.695Z,12.70
2017-09-08T06:01:25.010Z,12.90
2017-09-08T06:03:52.604Z,12.90
2017-09-08T06:06:20.368Z,13.00
2017-09-08T06:08:48.114Z,13.00
2017-09-08T06:11:15.654Z,13.00
2017-09-08T06:13:43.205Z,13.00
2017-09-08T06:16:10.781Z,13.10
2017-09-08T06:18:38.316Z,13.20
2017-09-08T06:21:05.892Z,13.20
2017-09-08T06:23:33.431Z,13.30
2017-09-08T06:26:01.052Z,13.30
2017-09-08T06:28:28.584Z,13.30
2017-09-08T06:30:56.116Z,13.40
2017-09-08T06:33:23.703Z,13.40
2017-09-08T06:35:51.379Z,13.50
2017-09-08T06:38:19.774Z,13.70
2017-09-08T06:40:47.324Z,13.60
2017-09-08T06:43:15.007Z,13.70
2017-09-08T06:45:42.541Z,13.70
2017-09-08T06:48:10.452Z,13.70
2017-09-08T06:50:38.743Z,13.70
2017-09-08T06:53:06.323Z,13.70
2017-09-08T06:55:33.862Z,13.90
2017-09-08T06:58:01.444Z,14.00
2017-09-08T07:00:29.753Z,14.10
2017-09-08T07:02:57.321Z,14.10
2017-09-08T07:05:24.910Z,14.10
2017-09-08T07:07:53.276Z,14.30
2017-09-08T07:10:20.866Z,14.30
2017-09-08T07:12:48.488Z,14.30
2017-09-08T07:15:16.043Z,14.30
2017-09-08T07:17:43.709Z,14.30
2017-09-08T07:20:11.265Z,14.40
2017-09-08T07:22:38.849Z,14.40
2017-09-08T07:25:07.148Z,14.60
2017-09-08T07:27:34.737Z,14.60
2017-09-08T07:30:03.049Z,14.70
2017-09-08T07:32:30.627Z,14.70
2017-09-08T07:34:58.171Z,14.80
2017-09-08T07:37:25.830Z,14.80
2017-09-08T07:39:53.445Z,14.90
2017-09-08T07:42:21.035Z,15.00
2017-09-08T07:44:49.397Z,15.30
2017-09-08T07:47:16.956Z,15.30
2017-09-08T07:49:44.550Z,15.40
2017-09-08T07:52:12.080Z,15.60
2017-09-08T07:54:39.656Z,15.80
2017-09-08T07:57:07.208Z,16.00
2017-09-08T07:59:34.780Z,16.20
2017-09-08T08:02:03.090Z,16.60
2017-09-08T08:04:30.744Z,16.60
2017-09-08T08:06:58.386Z,16.90
2017-09-08T08:09:26.711Z,17.20
2017-09-08T08:11:54.239Z,17.20
2017-09-08T08:14:22.581Z,17.30
2017-09-08T08:16:50.126Z,17.30
2017-09-08T08:19:17.724Z,17.30
2017-09-08T08:21:45.260Z,17.40
2017-09-08T08:24:12.795Z,17.50
2017-09-08T08:26:41.140Z,17.70
2017-09-08T08:29:09.454Z,17.80
2017-09-08T08:31:37.033Z,17.80
2017-09-08T08:34:04.574Z,18.00
2017-09-08T08:36:32.157Z,18.10
2017-09-08T08:38:59.693Z,18.20
2017-09-08T08:41:28.040Z,18.40
2017-09-08T08:43:56.353Z,18.50
2017-09-08T08:49:15.842Z,18.50
2017-09-08T08:51:43.396Z,18.50
2017-09-08T08:54:10.946Z,18.40
2017-09-08T08:56:38.479Z,18.40
2017-09-08T08:59:06.031Z,18.60
2017-09-08T09:01:33.571Z,18.70
2017-09-08T09:04:01.121Z,18.80
2017-09-08T09:06:28.651Z,19.00
2017-09-08T09:08:56.236Z,19.20
2017-09-08T09:11:24.556Z,19.50
2017-09-08T09:13:52.103Z,19.50
2017-09-08T09:16:19.655Z,19.70
2017-09-08T09:18:47.224Z,19.80
2017-09-08T09:21:14.763Z,20.10
2017-09-08T09:23:42.342Z,20.40
2017-09-08T09:26:09.920Z,20.60
2017-09-08T09:28:37.476Z,20.40
2017-09-08T09:31:05.011Z,20.70
2017-09-08T09:33:32.590Z,20.80
2017-09-08T09:36:00.131Z,20.60
2017-09-08T09:38:27.704Z,20.00
2017-09-08T09:40:55.232Z,19.80
2017-09-08T09:43:23.575Z,20.10
2017-09-08T09:45:51.107Z,20.10
2017-09-08T09:48:18.688Z,19.80
2017-09-08T09:50:46.227Z,19.70
2017-09-08T09:53:13.799Z,19.80
2017-09-08T09:55:41.347Z,19.70
2017-09-08T09:58:08.907Z,19.80
2017-09-08T10:00:36.439Z,19.90
2017-09-08T10:03:04.019Z,19.80
2017-09-08T10:05:31.555Z,19.80
2017-09-08T10:07:59.140Z,19.70
2017-09-08T10:10:27.438Z,19.60
2017-09-08T10:12:55.015Z,19.60
2017-09-08T10:15:22.555Z,19.70
2017-09-08T10:17:50.127Z,19.50
2017-09-08T10:20:17.660Z,19.80
2017-09-08T10:22:45.216Z,20.00
2017-09-08T10:25:12.810Z,20.00
2017-09-08T10:27:40.338Z,20.10
2017-09-08T10:30:08.669Z,19.90
2017-09-08T10:32:36.212Z,19.90
2017-09-08T10:35:03.771Z,19.70
2017-09-08T10:37:32.071Z,19.80
2017-09-08T10:39:59.658Z,19.80
2017-09-08T10:42:27.196Z,20.00
2017-09-08T10:44:54.734Z,19.90
2017-09-08T10:47:22.296Z,20.00
2017-09-08T10:49:49.851Z,20.00
2017-09-08T10:52:17.427Z,19.90
2017-09-08T10:54:44.982Z,19.80
2017-09-08T10:57:12.572Z,19.90
2017-09-08T10:59:40.114Z,20.10
2017-09-08T11:02:07.659Z,20.10
2017-09-08T11:04:35.228Z,20.10
2017-09-08T11:07:02.764Z,20.10
2017-09-08T11:09:30.331Z,20.10
2017-09-08T11:11:58.651Z,20.40
2017-09-08T11:14:26.205Z,20.40
2017-09-08T11:16:53.740Z,20.60
2017-09-08T11:19:21.322Z,20.80
2017-09-08T11:21:49.633Z,20.90
2017-09-08T11:24:17.173Z,20.90
2017-09-08T11:26:44.747Z,20.90
2017-09-08T11:29:12.308Z,21.00
2017-09-08T11:31:39.934Z,21.20
2017-09-08T11:34:13.098Z,20.90
2017-09-08T11:39:41.562Z,20.70
2017-09-08T11:42:09.160Z,20.70
2017-09-08T11:44:37.804Z,20.60
2017-09-08T11:47:05.364Z,20.60
2017-09-08T11:49:32.919Z,20.50
2017-09-08T11:52:01.263Z,20.10
2017-09-08T11:54:28.827Z,20.00
2017-09-08T11:56:57.180Z,19.60
2017-09-08T11:59:24.719Z,19.60
2017-09-08T12:01:52.689Z,19.80
2017-09-08T12:04:20.996Z,19.90
2017-09-08T12:06:48.554Z,19.90
2017-09-08T12:09:16.151Z,20.00
2017-09-08T12:11:44.475Z,20.60
2017-09-08T12:14:12.050Z,20.60
2017-09-08T12:16:39.598Z,20.80
2017-09-08T12:19:07.942Z,21.00
2017-09-08T12:21:35.608Z,21.00
2017-09-08T12:24:03.943Z,21.40
2017-09-08T12:26:31.472Z,21.30
2017-09-08T12:28:59.150Z,21.50
2017-09-08T12:31:26.683Z,21.20
2017-09-08T12:33:54.214Z,21.20
2017-09-08T12:36:21.793Z,21.30
2017-09-08T12:38:49.335Z,21.40
2017-09-08T12:41:16.915Z,21.40
2017-09-08T12:43:44.455Z,21.30
2017-09-08T12:46:12.018Z,21.20
2017-09-08T12:48:39.555Z,21.30
2017-09-08T12:51:07.246Z,21.30
2017-09-08T12:53:35.055Z,21.30
2017-09-08T12:56:02.585Z,21.20
2017-09-08T12:58:30.176Z,20.80
2017-09-08T13:00:57.714Z,20.50
2017-09-08T13:03:25.290Z,20.50
2017-09-08T13:05:52.834Z,20.60
2017-09-08T13:08:20.518Z,20.60
2017-09-08T13:10:48.092Z,20.70
2017-09-08T13:13:15.646Z,20.80
2017-09-08T13:15:43.211Z,20.90
2017-09-08T13:18:10.741Z,21.00
2017-09-08T13:20:38.312Z,20.90
2017-09-08T13:23:05.840Z,20.90
2017-09-08T13:25:33.407Z,20.90
2017-09-08T13:28:01.028Z,21.10
2017-09-08T13:30:28.783Z,21.30
2017-09-08T13:32:56.340Z,21.50
2017-09-08T13:35:23.896Z,21.90
2017-09-08T13:37:52.227Z,22.10
2017-09-08T13:40:19.791Z,22.10
2017-09-08T13:42:47.528Z,22.20
2017-09-08T13:45:15.073Z,22.40
2017-09-08T13:47:42.602Z,22.20
2017-09-08T13:50:10.167Z,22.50
2017-09-08T13:52:37.691Z,22.60
2017-09-08T13:55:05.258Z,22.40
2017-09-08T13:57:32.790Z,22.30
2017-09-08T14:00:00.360Z,22.40
2017-09-08T14:02:27.894Z,22.50
2017-09-08T14:04:55.462Z,22.60
2017-09-08T14:07:23.760Z,21.90
2017-09-08T14:09:51.562Z,21.90
2017-09-08T14:12:19.212Z,21.80
2017-09-08T14:14:46.777Z,21.50
2017-09-08T14:17:14.782Z,21.60
2017-09-08T14:19:42.327Z,21.50
2017-09-08T14:22:09.947Z,21.40
2017-09-08T14:24:37.521Z,21.40
2017-09-08T14:27:05.211Z,21.40
2017-09-08T14:29:32.767Z,21.50
2017-09-08T14:32:00.315Z,21.60
2017-09-08T14:34:27.894Z,21.50
2017-09-08T14:36:55.445Z,21.40
2017-09-08T14:39:23.332Z,21.50
2017-09-08T14:41:51.660Z,21.30
2017-09-08T14:44:19.230Z,21.30
2017-09-08T14:46:46.865Z,21.40
2017-09-08T14:49:14.413Z,21.50
2017-09-08T14:51:41.987Z,21.50
2017-09-08T14:54:10.282Z,21.70
2017-09-08T14:56:37.870Z,21.70
2017-09-08T14:59:05.406Z,21.60
2017-09-08T15:01:32.978Z,21.50
2017-09-08T15:04:01.312Z,21.10
2017-09-08T15:06:28.844Z,21.10
2017-09-08T15:08:56.431Z,21.20
2017-09-08T15:11:24.748Z,20.80
2017-09-08T15:13:52.655Z,20.80
2017-09-08T15:16:20.224Z,20.60
2017-09-08T15:18:47.798Z,20.60
2017-09-08T15:21:15.393Z,20.60
2017-09-08T15:23:43.701Z,20.60
2017-09-08T15:26:11.284Z,20.60
2017-09-08T15:28:38.847Z,20.20
2017-09-08T15:31:07.480Z,20.40
2017-09-08T15:33:35.020Z,20.40
2017-09-08T15:36:02.550Z,20.50
2017-09-08T15:38:30.119Z,20.40
2017-09-08T15:40:57.660Z,20.40
2017-09-08T15:43:25.249Z,20.40
2017-09-08T15:45:53.584Z,20.60
2017-09-08T15:48:21.935Z,20.50
2017-09-08T15:50:49.628Z,20.50
2017-09-08T15:53:17.514Z,20.60
2017-09-08T15:55:45.064Z,20.70
2017-09-08T15:58:13.942Z,20.60
2017-09-08T16:00:41.666Z,20.50
2017-09-08T16:03:10.181Z,20.30
2017-09-08T16:11:36.568Z,20.20
2017-09-08T16:14:04.185Z,20.00
2017-09-08T16:16:31.886Z,20.10
2017-09-08T16:18:59.517Z,20.10
2017-09-08T16:21:27.224Z,20.00
2017-09-08T16:23:55.565Z,19.90
2017-09-08T16:26:23.220Z,19.90
2017-09-08T16:28:51.668Z,19.90
2017-09-08T16:31:20.465Z,19.80
2017-09-08T16:33:48.131Z,19.80
2017-09-08T16:36:16.442Z,19.50
2017-09-08T16:38:44.082Z,19.50
2017-09-08T16:41:11.680Z,19.30
2017-09-08T16:43:40.036Z,19.20
2017-09-08T16:46:08.339Z,19.00
2017-09-08T16:48:35.916Z,19.00
2017-09-08T16:51:03.450Z,18.90
2017-09-08T16:53:31.032Z,18.80
2017-09-08T16:55:58.567Z,18.70
2017-09-08T16:58:26.233Z,18.70
2017-09-08T17:00:54.563Z,18.50
2017-09-08T17:03:22.119Z,18.50
2017-09-08T17:05:49.699Z,18.50
2017-09-08T17:08:17.259Z,18.40
2017-09-08T17:10:44.835Z,18.20
2017-09-08T17:13:12.396Z,18.10
2017-09-08T17:15:39.967Z,17.90
2017-09-08T17:18:08.270Z,17.90
2017-09-08T17:20:35.931Z,17.90
2017-09-08T17:23:03.472Z,17.70
2017-09-08T17:25:31.036Z,17.60
2017-09-08T17:27:58.583Z,17.60
2017-09-08T17:30:26.165Z,17.50
2017-09-08T17:32:53.700Z,17.40
2017-09-08T17:35:22.046Z,17.20
2017-09-08T17:37:49.666Z,17.20
2017-09-08T17:40:17.260Z,17.10
2017-09-08T17:42:45.568Z,17.00
2017-09-08T17:45:13.132Z,16.90
2017-09-08T17:47:40.769Z,16.90
2017-09-08T17:50:08.349Z,16.70
2017-09-08T17:52:36.647Z,16.60
2017-09-08T17:55:04.215Z,16.60
2017-09-08T17:57:31.748Z,16.40
2017-09-08T17:59:59.331Z,16.30
2017-09-08T18:02:26.877Z,16.20
2017-09-08T18:04:54.946Z,16.10
2017-09-08T18:07:22.507Z,16.10
2017-09-08T18:09:51.673Z,15.80
2017-09-08T18:12:19.239Z,15.80
2017-09-08T18:14:47.611Z,15.70
2017-09-08T18:17:15.359Z,15.70
2017-09-08T18:19:43.424Z,15.60
2017-09-08T18:22:11.822Z,15.50
2017-09-08T18:24:39.488Z,15.40
2017-09-08T18:27:07.050Z,15.30
2017-09-08T18:29:35.431Z,15.30
2017-09-08T18:32:04.196Z,15.30
2017-09-08T18:34:31.989Z,15.20
2017-09-08T18:36:59.647Z,15.20
2017-09-08T18:39:28.345Z,15.10
2017-09-08T18:41:56.157Z,15.00
2017-09-08T18:44:23.722Z,15.00
2017-09-08T18:46:51.297Z,14.90
2017-09-08T18:49:19.828Z,14.90
2017-09-08T18:51:47.708Z,14.80
2017-09-08T18:54:15.333Z,14.90
2017-09-08T18:56:42.995Z,14.80
2017-09-08T18:59:10.982Z,14.80
2017-09-08T19:01:38.575Z,14.70
2017-09-08T19:04:06.135Z,14.70
2017-09-08T19:06:33.694Z,14.70
2017-09-08T19:09:01.473Z,14.60
2017-09-08T19:11:29.075Z,14.50
2017-09-08T19:13:56.699Z,14.50
2017-09-08T19:16:24.279Z,14.40
2017-09-08T19:18:51.843Z,14.30
2017-09-08T19:21:19.371Z,14.30
2017-09-08T19:23:46.955Z,14.40
2017-09-08T19:26:14.499Z,14.40
2017-09-08T19:28:42.734Z,14.30
2017-09-08T19:31:10.300Z,14.20
2017-09-08T19:33:37.996Z,14.20
2017-09-08T19:36:05.564Z,14.10
2017-09-08T19:38:33.152Z,14.10
2017-09-08T19:41:00.695Z,14.10
2017-09-08T19:43:28.265Z,14.10
2017-09-08T19:45:56.068Z,14.10
2017-09-08T19:48:23.958Z,14.10
2017-09-08T19:50:51.528Z,14.00
2017-09-08T19:53:19.098Z,13.90
2017-09-08T19:55:46.652Z,13.90
2017-09-08T19:58:15.001Z,14.00
2017-09-08T20:00:42.539Z,13.90
2017-09-08T20:03:10.092Z,13.90
2017-09-08T20:05:37.897Z,13.90
2017-09-08T20:08:05.556Z,13.70
2017-09-08T20:10:33.118Z,13.80
2017-09-08T20:13:01.307Z,13.70
2017-09-08T20:15:29.667Z,13.80
2017-09-08T20:17:57.212Z,13.70
2017-09-08T20:20:24.822Z,13.70
2017-09-08T20:22:52.363Z,13.70
2017-09-08T20:25:20.339Z,13.70
2017-09-08T20:27:48.396Z,13.50
2017-09-08T20:30:15.967Z,13.50
2017-09-08T20:32:44.267Z,13.40
2017-09-08T20:35:11.839Z,13.40
2017-09-08T20:37:39.362Z,13.40
2017-09-08T20:40:07.481Z,13.40
2017-09-08T20:42:35.081Z,13.50
2017-09-08T20:45:02.639Z,13.40
2017-09-08T20:47:30.172Z,13.40
2017-09-08T20:49:57.754Z,13.20
2017-09-08T20:52:25.419Z,13.20
2017-09-08T20:54:52.984Z,13.20
2017-09-08T20:57:20.530Z,13.10
2017-09-08T20:59:48.102Z,13.10
2017-09-08T21:02:15.644Z,13.10
2017-09-08T21:04:43.690Z,13.00
2017-09-08T21:07:11.212Z,13.00
2017-09-08T21:09:38.794Z,13.00
2017-09-08T21:12:06.326Z,13.00
2017-09-08T21:14:33.895Z,13.00
2017-09-08T21:17:01.425Z,12.90
2017-09-08T21:19:29.007Z,12.90
2017-09-08T21:21:56.536Z,12.90
2017-09-08T21:24:24.444Z,12.90
2017-09-08T21:26:52.198Z,12.90
2017-09-08T21:29:19.906Z,12.80
2017-09-08T21:31:47.740Z,12.80
2017-09-08T21:34:15.279Z,12.90
2017-09-08T21:36:42.911Z,12.80
2017-09-08T21:39:10.494Z,12.80
2017-09-08T21:41:38.912Z,12.70
2017-09-08T21:44:06.514Z,12.70
2017-09-08T21:46:34.942Z,12.80
2017-09-08T21:49:02.558Z,12.70
2017-09-08T21:51:30.187Z,12.70
2017-09-08T21:53:57.759Z,12.70
2017-09-08T21:56:26.195Z,12.60
2017-09-08T21:58:53.812Z,12.60
2017-09-08T22:01:21.430Z,12.60
2017-09-08T22:03:48.974Z,12.60
2017-09-08T22:06:16.558Z,12.60
2017-09-08T22:08:44.870Z,12.60
2017-09-08T22:11:12.395Z,12.60
2017-09-08T22:13:39.963Z,12.60
2017-09-08T22:16:07.499Z,12.60
2017-09-08T22:18:35.060Z,12.60
2017-09-08T22:21:02.635Z,12.50
2017-09-08T22:23:30.379Z,12.40
2017-09-08T22:25:57.954Z,12.40
2017-09-08T22:28:26.242Z,12.40
2017-09-08T22:30:53.801Z,12.40
2017-09-08T22:33:21.353Z,12.40
2017-09-08T22:35:48.952Z,12.40
2017-09-08T22:38:17.259Z,12.50
2017-09-08T22:40:44.794Z,12.50
2017-09-08T22:43:12.371Z,12.60
2017-09-08T22:45:39.904Z,12.50
2017-09-08T22:48:07.479Z,12.50
2017-09-08T22:50:35.010Z,12.50
2017-09-08T22:53:02.579Z,12.60
2017-09-08T22:55:30.879Z,12.70
2017-09-08T22:57:58.456Z,12.70
2017-09-08T23:00:25.992Z,12.70
2017-09-08T23:02:53.633Z,12.70
2017-09-08T23:05:21.172Z,12.80
2017-09-08T23:07:48.706Z,12.80
2017-09-08T23:10:16.370Z,12.80
2017-09-08T23:12:43.966Z,12.80
2017-09-08T23:15:12.258Z,12.80
2017-09-08T23:17:39.786Z,12.80
2017-09-08T23:20:07.373Z,12.90
2017-09-08T23:22:34.907Z,12.90
2017-09-08T23:25:02.466Z,12.90
2017-09-08T23:27:30.002Z,12.90
2017-09-08T23:29:57.565Z,12.90
2017-09-08T23:32:25.106Z,12.90
2017-09-08T23:34:52.695Z,13.00
2017-09-08T23:37:21.001Z,12.90
2017-09-08T23:39:48.579Z,12.90
2017-09-08T23:42:16.891Z,12.90
2017-09-08T23:44:44.476Z,12.90
2017-09-08T23:47:12.004Z,13.00
2017-09-08T23:49:46.306Z,12.90
2017-09-08T23:52:13.857Z,12.90
2017-09-08T23:54:41.414Z,13.00
2017-09-08T23:57:08.976Z,13.00
2017-09-08T23:59:36.531Z,13.00
